Disclaimer

Please do not use the information listed here in-flight or in-navigation, as they are not provided to us by the airports but are provided by volunteers, so they might be outdated.

Search


Regions


Airport information page

Radio informations:
ARICA TWR - 118.5 MHz
Ground (GND) - 121.9 MHz
ARICA APP - 119.9 MHz

Airport informations:
Latitude: 18° 20' 54.71" S
Longitude: 070° 20' 19.47" W
Elevation: 167 feet - 51 meters
Operating hours: 24 hour operations
Operating agency: Civil government, landing fees and diplomatic clearance may be required
Timezone: UTC-4(-3DT)
Fuel: Jet A1, without icing nhibitor.

100/130 MIL Spec, low lead, aviation gasoline (BLUE)

Runway information:
02/20 - 7119 x 148 feet< - >2170 x 45 meters

Recent METARs:
SCAR 202000Z 21012KT CAVOK 22/16 Q1012
SCAR 202100Z 21012KT 9999 21/16 Q1013
SCAR 202100Z 21012KT 9999 21/16 Q1013

Airport on the map: